sensor_id;sensor_type;location;lat;lon;timestamp;P1;durP1;ratioP1;P2;durP2;ratioP2
3487;SDS011;38546;48.170;11.724;2023-08-20T00:02:04;8.50;;;7.10;;
3487;SDS011;38546;48.170;11.724;2023-08-20T00:04:57;11.10;;;7.23;;
3487;SDS011;38546;48.170;11.724;2023-08-20T00:07:47;8.87;;;7.93;;
3487;SDS011;38546;48.170;11.724;2023-08-20T00:10:36;10.83;;;7.13;;
3487;SDS011;38546;48.170;11.724;2023-08-20T00:13:26;8.47;;;7.60;;
3487;SDS011;38546;48.170;11.724;2023-08-20T00:16:17;14.60;;;8.43;;
3487;SDS011;38546;48.170;11.724;2023-08-20T00:19:06;11.33;;;7.50;;
3487;SDS011;38546;48.170;11.724;2023-08-20T00:21:57;9.40;;;7.30;;
3487;SDS011;38546;48.170;11.724;2023-08-20T00:24:47;15.77;;;7.63;;
3487;SDS011;38546;48.170;11.724;2023-08-20T00:27:37;11.17;;;7.70;;
3487;SDS011;38546;48.170;11.724;2023-08-20T00:30:27;8.60;;;7.77;;
3487;SDS011;38546;48.170;11.724;2023-08-20T00:33:17;9.73;;;7.50;;
3487;SDS011;38546;48.170;11.724;2023-08-20T00:36:06;10.77;;;7.30;;
3487;SDS011;38546;48.170;11.724;2023-08-20T00:38:55;11.13;;;8.33;;
3487;SDS011;38546;48.170;11.724;2023-08-20T00:41:45;12.40;;;7.90;;
3487;SDS011;38546;48.170;11.724;2023-08-20T00:44:34;9.20;;;7.10;;
3487;SDS011;38546;48.170;11.724;2023-08-20T00:47:24;10.20;;;7.40;;
3487;SDS011;38546;48.170;11.724;2023-08-20T00:50:13;12.70;;;7.90;;
3487;SDS011;38546;48.170;11.724;2023-08-20T00:53:03;9.50;;;7.10;;
3487;SDS011;38546;48.170;11.724;2023-08-20T00:55:53;8.73;;;7.47;;
3487;SDS011;38546;48.170;11.724;2023-08-20T00:58:42;8.73;;;7.80;;
3487;SDS011;38546;48.170;11.724;2023-08-20T01:01:32;8.07;;;6.93;;
3487;SDS011;38546;48.170;11.724;2023-08-20T01:04:21;10.23;;;7.57;;
3487;SDS011;38546;48.170;11.724;2023-08-20T01:07:14;10.07;;;6.97;;
3487;SDS011;38546;48.170;11.724;2023-08-20T01:10:19;12.60;;;7.53;;
3487;SDS011;38546;48.170;11.724;2023-08-20T01:13:59;8.23;;;7.43;;
3487;SDS011;38546;48.170;11.724;2023-08-20T01:16:50;9.00;;;7.47;;
3487;SDS011;38546;48.170;11.724;2023-08-20T01:19:39;7.83;;;7.03;;
3487;SDS011;38546;48.170;11.724;2023-08-20T01:22:34;9.90;;;7.77;;
3487;SDS011;38546;48.170;11.724;2023-08-20T01:30:30;7.83;;;7.03;;
3487;SDS011;38546;48.170;11.724;2023-08-20T01:33:20;7.17;;;6.47;;
3487;SDS011;38546;48.170;11.724;2023-08-20T01:36:10;8.30;;;7.30;;
3487;SDS011;38546;48.170;11.724;2023-08-20T01:38:59;9.47;;;7.67;;
3487;SDS011;38546;48.170;11.724;2023-08-20T01:41:48;9.07;;;7.13;;
3487;SDS011;38546;48.170;11.724;2023-08-20T01:44:38;7.97;;;6.93;;
3487;SDS011;38546;48.170;11.724;2023-08-20T01:47:27;9.23;;;6.13;;
3487;SDS011;38546;48.170;11.724;2023-08-20T01:50:16;8.47;;;6.87;;
3487;SDS011;38546;48.170;11.724;2023-08-20T01:53:05;9.97;;;7.60;;
3487;SDS011;38546;48.170;11.724;2023-08-20T01:55:54;8.60;;;7.70;;
3487;SDS011;38546;48.170;11.724;2023-08-20T01:58:44;10.87;;;8.23;;
3487;SDS011;38546;48.170;11.724;2023-08-20T02:01:34;7.93;;;7.13;;
3487;SDS011;38546;48.170;11.724;2023-08-20T02:04:23;8.53;;;7.57;;
3487;SDS011;38546;48.170;11.724;2023-08-20T02:07:12;13.90;;;8.40;;
3487;SDS011;38546;48.170;11.724;2023-08-20T02:10:01;8.00;;;7.20;;
3487;SDS011;38546;48.170;11.724;2023-08-20T02:12:51;7.97;;;7.20;;
3487;SDS011;38546;48.170;11.724;2023-08-20T02:15:40;9.30;;;7.20;;
3487;SDS011;38546;48.170;11.724;2023-08-20T02:18:29;7.97;;;7.00;;
3487;SDS011;38546;48.170;11.724;2023-08-20T02:21:19;9.83;;;7.90;;
3487;SDS011;38546;48.170;11.724;2023-08-20T02:24:09;10.60;;;7.27;;
3487;SDS011;38546;48.170;11.724;2023-08-20T02:26:58;9.23;;;7.20;;
3487;SDS011;38546;48.170;11.724;2023-08-20T02:29:47;8.57;;;7.43;;
3487;SDS011;38546;48.170;11.724;2023-08-20T02:32:37;14.77;;;7.80;;
3487;SDS011;38546;48.170;11.724;2023-08-20T02:35:27;12.03;;;8.47;;
3487;SDS011;38546;48.170;11.724;2023-08-20T02:38:16;8.33;;;7.53;;
3487;SDS011;38546;48.170;11.724;2023-08-20T02:41:05;8.03;;;7.23;;
3487;SDS011;38546;48.170;11.724;2023-08-20T02:43:54;11.43;;;8.03;;
3487;SDS011;38546;48.170;11.724;2023-08-20T02:46:43;8.87;;;7.97;;
3487;SDS011;38546;48.170;11.724;2023-08-20T02:49:33;9.03;;;7.13;;
3487;SDS011;38546;48.170;11.724;2023-08-20T02:52:22;8.53;;;7.70;;
3487;SDS011;38546;48.170;11.724;2023-08-20T02:55:11;14.30;;;8.40;;
3487;SDS011;38546;48.170;11.724;2023-08-20T02:58:00;10.70;;;7.50;;
3487;SDS011;38546;48.170;11.724;2023-08-20T03:00:52;7.93;;;7.13;;
3487;SDS011;38546;48.170;11.724;2023-08-20T03:03:42;8.03;;;7.23;;
3487;SDS011;38546;48.170;11.724;2023-08-20T03:06:31;10.17;;;7.43;;
3487;SDS011;38546;48.170;11.724;2023-08-20T03:09:20;12.77;;;7.93;;
3487;SDS011;38546;48.170;11.724;2023-08-20T03:12:09;7.83;;;6.87;;
3487;SDS011;38546;48.170;11.724;2023-08-20T03:14:59;10.63;;;7.30;;
3487;SDS011;38546;48.170;11.724;2023-08-20T03:17:48;10.33;;;7.90;;
3487;SDS011;38546;48.170;11.724;2023-08-20T03:20:38;10.60;;;7.93;;
3487;SDS011;38546;48.170;11.724;2023-08-20T03:23:27;10.23;;;7.97;;
3487;SDS011;38546;48.170;11.724;2023-08-20T03:26:17;8.40;;;6.50;;
3487;SDS011;38546;48.170;11.724;2023-08-20T03:29:06;9.37;;;7.93;;
3487;SDS011;38546;48.170;11.724;2023-08-20T03:31:55;9.60;;;6.93;;
3487;SDS011;38546;48.170;11.724;2023-08-20T03:34:45;9.90;;;7.60;;
3487;SDS011;38546;48.170;11.724;2023-08-20T03:37:34;10.83;;;7.53;;
3487;SDS011;38546;48.170;11.724;2023-08-20T03:40:23;7.40;;;6.60;;
3487;SDS011;38546;48.170;11.724;2023-08-20T03:43:13;12.50;;;8.40;;
3487;SDS011;38546;48.170;11.724;2023-08-20T03:46:02;9.53;;;7.60;;
3487;SDS011;38546;48.170;11.724;2023-08-20T03:48:51;8.43;;;7.30;;
3487;SDS011;38546;48.170;11.724;2023-08-20T03:51:41;7.90;;;7.10;;
3487;SDS011;38546;48.170;11.724;2023-08-20T03:54:31;10.37;;;8.67;;
3487;SDS011;38546;48.170;11.724;2023-08-20T03:57:21;9.63;;;8.30;;
3487;SDS011;38546;48.170;11.724;2023-08-20T04:00:11;9.63;;;7.33;;
3487;SDS011;38546;48.170;11.724;2023-08-20T04:03:02;8.60;;;7.10;;
3487;SDS011;38546;48.170;11.724;2023-08-20T04:05:51;8.10;;;7.30;;
3487;SDS011;38546;48.170;11.724;2023-08-20T04:08:41;9.37;;;8.47;;
3487;SDS011;38546;48.170;11.724;2023-08-20T04:11:31;9.07;;;7.73;;
3487;SDS011;38546;48.170;11.724;2023-08-20T04:14:20;7.67;;;6.93;;
3487;SDS011;38546;48.170;11.724;2023-08-20T04:17:09;9.53;;;7.67;;
3487;SDS011;38546;48.170;11.724;2023-08-20T04:19:59;9.67;;;7.43;;
3487;SDS011;38546;48.170;11.724;2023-08-20T04:22:48;8.50;;;7.63;;
3487;SDS011;38546;48.170;11.724;2023-08-20T04:25:37;8.20;;;7.00;;
3487;SDS011;38546;48.170;11.724;2023-08-20T04:28:27;9.10;;;7.53;;
3487;SDS011;38546;48.170;11.724;2023-08-20T04:31:17;8.77;;;7.30;;
3487;SDS011;38546;48.170;11.724;2023-08-20T04:34:06;12.13;;;8.50;;
3487;SDS011;38546;48.170;11.724;2023-08-20T04:36:56;10.73;;;7.80;;
3487;SDS011;38546;48.170;11.724;2023-08-20T04:39:45;10.73;;;7.93;;
3487;SDS011;38546;48.170;11.724;2023-08-20T04:42:34;8.47;;;7.57;;
3487;SDS011;38546;48.170;11.724;2023-08-20T04:45:23;7.90;;;7.10;;
3487;SDS011;38546;48.170;11.724;2023-08-20T04:48:13;9.57;;;8.13;;
3487;SDS011;38546;48.170;11.724;2023-08-20T04:51:02;9.53;;;7.27;;
3487;SDS011;38546;48.170;11.724;2023-08-20T04:53:54;10.00;;;7.50;;
3487;SDS011;38546;48.170;11.724;2023-08-20T04:56:43;7.87;;;6.73;;
3487;SDS011;38546;48.170;11.724;2023-08-20T04:59:32;14.03;;;7.53;;
3487;SDS011;38546;48.170;11.724;2023-08-20T05:02:22;8.07;;;7.37;;
3487;SDS011;38546;48.170;11.724;2023-08-20T05:05:12;8.50;;;7.60;;
3487;SDS011;38546;48.170;11.724;2023-08-20T05:08:01;9.37;;;7.70;;
3487;SDS011;38546;48.170;11.724;2023-08-20T05:10:51;10.40;;;8.23;;
3487;SDS011;38546;48.170;11.724;2023-08-20T05:13:40;8.47;;;7.63;;
3487;SDS011;38546;48.170;11.724;2023-08-20T05:16:29;10.17;;;7.13;;
3487;SDS011;38546;48.170;11.724;2023-08-20T05:19:18;7.97;;;6.90;;
3487;SDS011;38546;48.170;11.724;2023-08-20T05:22:08;10.10;;;7.80;;
3487;SDS011;38546;48.170;11.724;2023-08-20T05:24:59;7.50;;;6.80;;
3487;SDS011;38546;48.170;11.724;2023-08-20T05:27:48;8.40;;;7.50;;
3487;SDS011;38546;48.170;11.724;2023-08-20T05:30:37;8.43;;;6.90;;
3487;SDS011;38546;48.170;11.724;2023-08-20T05:33:26;10.67;;;7.03;;
3487;SDS011;38546;48.170;11.724;2023-08-20T05:36:15;9.50;;;7.40;;
3487;SDS011;38546;48.170;11.724;2023-08-20T05:39:05;9.03;;;7.70;;
3487;SDS011;38546;48.170;11.724;2023-08-20T05:41:54;9.53;;;7.80;;
3487;SDS011;38546;48.170;11.724;2023-08-20T05:44:43;8.33;;;7.53;;
3487;SDS011;38546;48.170;11.724;2023-08-20T05:47:32;8.97;;;7.53;;
3487;SDS011;38546;48.170;11.724;2023-08-20T05:50:22;9.40;;;7.87;;
3487;SDS011;38546;48.170;11.724;2023-08-20T05:53:11;11.00;;;7.87;;
3487;SDS011;38546;48.170;11.724;2023-08-20T05:56:00;8.10;;;7.30;;
3487;SDS011;38546;48.170;11.724;2023-08-20T05:58:50;11.00;;;8.70;;
3487;SDS011;38546;48.170;11.724;2023-08-20T06:01:40;10.53;;;7.53;;
3487;SDS011;38546;48.170;11.724;2023-08-20T06:04:29;8.93;;;8.00;;
3487;SDS011;38546;48.170;11.724;2023-08-20T06:07:19;11.07;;;7.77;;
3487;SDS011;38546;48.170;11.724;2023-08-20T06:10:08;10.80;;;8.73;;
3487;SDS011;38546;48.170;11.724;2023-08-20T06:12:58;15.23;;;8.70;;
3487;SDS011;38546;48.170;11.724;2023-08-20T06:15:47;8.70;;;7.90;;
3487;SDS011;38546;48.170;11.724;2023-08-20T06:18:36;7.97;;;7.20;;
3487;SDS011;38546;48.170;11.724;2023-08-20T06:21:26;11.73;;;7.60;;
3487;SDS011;38546;48.170;11.724;2023-08-20T06:24:16;10.87;;;8.17;;
3487;SDS011;38546;48.170;11.724;2023-08-20T06:27:05;8.50;;;6.80;;
3487;SDS011;38546;48.170;11.724;2023-08-20T06:29:54;9.30;;;7.37;;
3487;SDS011;38546;48.170;11.724;2023-08-20T06:32:44;10.07;;;7.03;;
3487;SDS011;38546;48.170;11.724;2023-08-20T06:35:33;12.43;;;8.27;;
3487;SDS011;38546;48.170;11.724;2023-08-20T06:38:23;9.10;;;7.73;;
3487;SDS011;38546;48.170;11.724;2023-08-20T06:41:12;7.87;;;6.70;;
3487;SDS011;38546;48.170;11.724;2023-08-20T06:44:01;9.40;;;6.30;;
3487;SDS011;38546;48.170;11.724;2023-08-20T06:46:51;8.73;;;7.47;;
3487;SDS011;38546;48.170;11.724;2023-08-20T06:49:41;10.27;;;7.40;;
3487;SDS011;38546;48.170;11.724;2023-08-20T06:52:30;6.97;;;6.23;;
3487;SDS011;38546;48.170;11.724;2023-08-20T06:55:19;7.90;;;7.10;;
3487;SDS011;38546;48.170;11.724;2023-08-20T06:58:09;7.53;;;6.43;;
3487;SDS011;38546;48.170;11.724;2023-08-20T07:00:58;7.83;;;6.47;;
3487;SDS011;38546;48.170;11.724;2023-08-20T07:03:55;7.90;;;6.77;;
3487;SDS011;38546;48.170;11.724;2023-08-20T07:06:44;9.00;;;7.20;;
3487;SDS011;38546;48.170;11.724;2023-08-20T07:09:33;9.10;;;6.83;;
3487;SDS011;38546;48.170;11.724;2023-08-20T07:12:22;8.47;;;6.40;;
3487;SDS011;38546;48.170;11.724;2023-08-20T07:15:11;6.60;;;6.00;;
3487;SDS011;38546;48.170;11.724;2023-08-20T07:18:00;7.20;;;6.50;;
3487;SDS011;38546;48.170;11.724;2023-08-20T07:20:50;7.73;;;6.63;;
3487;SDS011;38546;48.170;11.724;2023-08-20T07:23:43;7.27;;;5.77;;
3487;SDS011;38546;48.170;11.724;2023-08-20T07:26:31;7.30;;;5.27;;
3487;SDS011;38546;48.170;11.724;2023-08-20T07:29:20;8.60;;;6.60;;
3487;SDS011;38546;48.170;11.724;2023-08-20T07:32:12;6.93;;;6.10;;
3487;SDS011;38546;48.170;11.724;2023-08-20T07:35:00;6.40;;;5.80;;
3487;SDS011;38546;48.170;11.724;2023-08-20T07:37:51;8.37;;;6.70;;
3487;SDS011;38546;48.170;11.724;2023-08-20T07:40:40;6.80;;;6.10;;
3487;SDS011;38546;48.170;11.724;2023-08-20T07:43:29;6.37;;;5.53;;
3487;SDS011;38546;48.170;11.724;2023-08-20T07:46:18;5.87;;;5.37;;
3487;SDS011;38546;48.170;11.724;2023-08-20T07:49:07;7.03;;;5.63;;
3487;SDS011;38546;48.170;11.724;2023-08-20T07:51:56;5.57;;;5.07;;
3487;SDS011;38546;48.170;11.724;2023-08-20T07:54:45;12.00;;;6.07;;
3487;SDS011;38546;48.170;11.724;2023-08-20T07:57:35;7.90;;;6.20;;
3487;SDS011;38546;48.170;11.724;2023-08-20T08:00:25;8.00;;;5.83;;
3487;SDS011;38546;48.170;11.724;2023-08-20T08:03:14;7.87;;;6.03;;
3487;SDS011;38546;48.170;11.724;2023-08-20T08:06:05;5.70;;;5.20;;
3487;SDS011;38546;48.170;11.724;2023-08-20T08:08:54;7.60;;;5.63;;
3487;SDS011;38546;48.170;11.724;2023-08-20T08:11:43;6.20;;;5.53;;
3487;SDS011;38546;48.170;11.724;2023-08-20T08:14:33;6.53;;;5.33;;
3487;SDS011;38546;48.170;11.724;2023-08-20T08:17:22;6.80;;;5.80;;
3487;SDS011;38546;48.170;11.724;2023-08-20T08:20:11;10.57;;;6.30;;
3487;SDS011;38546;48.170;11.724;2023-08-20T08:23:01;9.07;;;5.27;;
3487;SDS011;38546;48.170;11.724;2023-08-20T08:25:51;7.17;;;6.10;;
3487;SDS011;38546;48.170;11.724;2023-08-20T08:28:40;9.93;;;7.17;;
3487;SDS011;38546;48.170;11.724;2023-08-20T08:31:29;8.53;;;6.03;;
3487;SDS011;38546;48.170;11.724;2023-08-20T08:34:19;7.13;;;6.43;;
3487;SDS011;38546;48.170;11.724;2023-08-20T08:37:10;11.00;;;7.17;;
3487;SDS011;38546;48.170;11.724;2023-08-20T08:39:59;8.87;;;6.77;;
3487;SDS011;38546;48.170;11.724;2023-08-20T08:42:49;9.00;;;6.97;;
3487;SDS011;38546;48.170;11.724;2023-08-20T08:45:40;7.73;;;6.93;;
3487;SDS011;38546;48.170;11.724;2023-08-20T08:48:35;8.80;;;6.73;;
3487;SDS011;38546;48.170;11.724;2023-08-20T08:51:25;11.57;;;6.50;;
3487;SDS011;38546;48.170;11.724;2023-08-20T08:54:16;9.77;;;6.80;;
3487;SDS011;38546;48.170;11.724;2023-08-20T08:57:06;7.57;;;6.70;;
3487;SDS011;38546;48.170;11.724;2023-08-20T08:59:55;7.63;;;6.00;;
3487;SDS011;38546;48.170;11.724;2023-08-20T09:02:44;6.93;;;6.30;;
3487;SDS011;38546;48.170;11.724;2023-08-20T09:06:01;7.27;;;5.93;;
3487;SDS011;38546;48.170;11.724;2023-08-20T09:09:03;7.67;;;6.93;;
3487;SDS011;38546;48.170;11.724;2023-08-20T09:11:55;8.33;;;6.53;;
3487;SDS011;38546;48.170;11.724;2023-08-20T09:14:48;7.00;;;6.40;;
3487;SDS011;38546;48.170;11.724;2023-08-20T09:17:42;7.00;;;6.30;;
3487;SDS011;38546;48.170;11.724;2023-08-20T09:20:35;8.17;;;6.70;;
3487;SDS011;38546;48.170;11.724;2023-08-20T09:23:29;9.63;;;6.70;;
3487;SDS011;38546;48.170;11.724;2023-08-20T09:26:18;7.90;;;5.57;;
3487;SDS011;38546;48.170;11.724;2023-08-20T09:29:08;8.83;;;6.43;;
3487;SDS011;38546;48.170;11.724;2023-08-20T09:32:01;6.60;;;6.00;;
3487;SDS011;38546;48.170;11.724;2023-08-20T09:34:51;6.43;;;5.83;;
3487;SDS011;38546;48.170;11.724;2023-08-20T09:37:42;13.27;;;7.53;;
3487;SDS011;38546;48.170;11.724;2023-08-20T09:40:32;7.83;;;7.13;;
3487;SDS011;38546;48.170;11.724;2023-08-20T09:43:24;7.07;;;6.37;;
3487;SDS011;38546;48.170;11.724;2023-08-20T09:46:16;7.70;;;6.90;;
3487;SDS011;38546;48.170;11.724;2023-08-20T09:49:08;9.30;;;7.10;;
3487;SDS011;38546;48.170;11.724;2023-08-20T09:52:03;7.20;;;6.60;;
3487;SDS011;38546;48.170;11.724;2023-08-20T09:55:06;7.30;;;6.60;;
3487;SDS011;38546;48.170;11.724;2023-08-20T09:58:02;7.30;;;6.60;;
3487;SDS011;38546;48.170;11.724;2023-08-20T10:00:53;6.80;;;6.20;;
3487;SDS011;38546;48.170;11.724;2023-08-20T10:03:43;7.40;;;6.70;;
3487;SDS011;38546;48.170;11.724;2023-08-20T10:06:32;8.17;;;5.90;;
3487;SDS011;38546;48.170;11.724;2023-08-20T10:09:22;8.07;;;5.87;;
3487;SDS011;38546;48.170;11.724;2023-08-20T10:12:13;6.53;;;5.93;;
3487;SDS011;38546;48.170;11.724;2023-08-20T10:15:03;7.83;;;5.90;;
3487;SDS011;38546;48.170;11.724;2023-08-20T10:17:53;6.53;;;5.90;;
3487;SDS011;38546;48.170;11.724;2023-08-20T10:20:45;5.60;;;5.20;;
3487;SDS011;38546;48.170;11.724;2023-08-20T10:23:35;6.97;;;6.37;;
3487;SDS011;38546;48.170;11.724;2023-08-20T10:26:29;7.07;;;6.43;;
3487;SDS011;38546;48.170;11.724;2023-08-20T10:29:38;6.93;;;6.33;;
3487;SDS011;38546;48.170;11.724;2023-08-20T10:32:44;6.90;;;6.30;;
3487;SDS011;38546;48.170;11.724;2023-08-20T10:35:47;6.53;;;6.03;;
3487;SDS011;38546;48.170;11.724;2023-08-20T10:38:38;6.80;;;6.20;;
3487;SDS011;38546;48.170;11.724;2023-08-20T10:41:28;6.43;;;5.93;;
3487;SDS011;38546;48.170;11.724;2023-08-20T10:44:17;6.20;;;5.70;;
3487;SDS011;38546;48.170;11.724;2023-08-20T10:47:07;6.50;;;5.93;;
3487;SDS011;38546;48.170;11.724;2023-08-20T10:49:56;6.13;;;5.53;;
3487;SDS011;38546;48.170;11.724;2023-08-20T10:52:50;6.33;;;5.83;;
3487;SDS011;38546;48.170;11.724;2023-08-20T10:55:48;8.43;;;6.13;;
3487;SDS011;38546;48.170;11.724;2023-08-20T10:58:38;6.40;;;5.80;;
3487;SDS011;38546;48.170;11.724;2023-08-20T11:01:33;5.70;;;5.20;;
3487;SDS011;38546;48.170;11.724;2023-08-20T11:04:23;6.00;;;5.50;;
3487;SDS011;38546;48.170;11.724;2023-08-20T11:07:17;6.27;;;5.67;;
3487;SDS011;38546;48.170;11.724;2023-08-20T11:10:08;6.30;;;5.77;;
3487;SDS011;38546;48.170;11.724;2023-08-20T11:12:57;6.10;;;5.60;;
3487;SDS011;38546;48.170;11.724;2023-08-20T11:15:46;5.70;;;5.20;;
3487;SDS011;38546;48.170;11.724;2023-08-20T11:18:35;6.23;;;5.70;;
3487;SDS011;38546;48.170;11.724;2023-08-20T11:21:25;6.67;;;6.00;;
3487;SDS011;38546;48.170;11.724;2023-08-20T11:24:14;5.90;;;5.50;;
3487;SDS011;38546;48.170;11.724;2023-08-20T11:27:03;7.80;;;6.17;;
3487;SDS011;38546;48.170;11.724;2023-08-20T11:29:53;7.00;;;5.80;;
3487;SDS011;38546;48.170;11.724;2023-08-20T11:32:44;6.47;;;5.87;;
3487;SDS011;38546;48.170;11.724;2023-08-20T11:35:35;6.10;;;5.27;;
3487;SDS011;38546;48.170;11.724;2023-08-20T11:38:25;8.50;;;6.27;;
3487;SDS011;38546;48.170;11.724;2023-08-20T11:41:16;6.40;;;5.80;;
3487;SDS011;38546;48.170;11.724;2023-08-20T11:44:05;5.77;;;5.27;;
3487;SDS011;38546;48.170;11.724;2023-08-20T11:46:57;5.93;;;5.43;;
3487;SDS011;38546;48.170;11.724;2023-08-20T11:49:47;6.07;;;5.57;;
3487;SDS011;38546;48.170;11.724;2023-08-20T11:52:36;6.40;;;5.90;;
3487;SDS011;38546;48.170;11.724;2023-08-20T11:55:29;7.43;;;6.83;;
3487;SDS011;38546;48.170;11.724;2023-08-20T11:58:19;7.07;;;6.47;;
3487;SDS011;38546;48.170;11.724;2023-08-20T12:01:10;6.80;;;6.20;;
3487;SDS011;38546;48.170;11.724;2023-08-20T12:04:06;10.27;;;6.60;;
3487;SDS011;38546;48.170;11.724;2023-08-20T12:07:01;7.53;;;6.90;;
3487;SDS011;38546;48.170;11.724;2023-08-20T12:10:20;7.20;;;6.50;;
3487;SDS011;38546;48.170;11.724;2023-08-20T12:13:10;7.10;;;6.50;;
3487;SDS011;38546;48.170;11.724;2023-08-20T12:16:00;7.50;;;6.83;;
3487;SDS011;38546;48.170;11.724;2023-08-20T12:18:49;7.70;;;6.90;;
3487;SDS011;38546;48.170;11.724;2023-08-20T12:21:40;6.40;;;5.30;;
3487;SDS011;38546;48.170;11.724;2023-08-20T12:24:32;7.70;;;6.90;;
3487;SDS011;38546;48.170;11.724;2023-08-20T12:27:21;8.70;;;7.23;;
3487;SDS011;38546;48.170;11.724;2023-08-20T12:30:11;8.03;;;7.33;;
3487;SDS011;38546;48.170;11.724;2023-08-20T12:33:01;8.10;;;7.40;;
3487;SDS011;38546;48.170;11.724;2023-08-20T12:35:53;8.23;;;7.43;;
3487;SDS011;38546;48.170;11.724;2023-08-20T12:38:43;8.80;;;7.60;;
3487;SDS011;38546;48.170;11.724;2023-08-20T12:41:33;7.40;;;6.70;;
3487;SDS011;38546;48.170;11.724;2023-08-20T12:44:24;7.67;;;6.97;;
3487;SDS011;38546;48.170;11.724;2023-08-20T12:47:14;10.50;;;7.60;;
3487;SDS011;38546;48.170;11.724;2023-08-20T12:50:03;7.17;;;6.47;;
3487;SDS011;38546;48.170;11.724;2023-08-20T12:52:54;9.83;;;6.90;;
3487;SDS011;38546;48.170;11.724;2023-08-20T12:55:44;7.17;;;6.57;;
3487;SDS011;38546;48.170;11.724;2023-08-20T12:58:34;8.10;;;7.30;;
3487;SDS011;38546;48.170;11.724;2023-08-20T13:01:23;7.73;;;6.70;;
3487;SDS011;38546;48.170;11.724;2023-08-20T13:04:12;7.57;;;6.50;;
3487;SDS011;38546;48.170;11.724;2023-08-20T13:07:03;7.70;;;6.93;;
3487;SDS011;38546;48.170;11.724;2023-08-20T13:09:53;9.47;;;7.43;;
3487;SDS011;38546;48.170;11.724;2023-08-20T13:12:51;9.00;;;6.87;;
3487;SDS011;38546;48.170;11.724;2023-08-20T13:15:42;7.90;;;7.10;;
3487;SDS011;38546;48.170;11.724;2023-08-20T13:18:33;8.27;;;7.57;;
3487;SDS011;38546;48.170;11.724;2023-08-20T13:21:23;7.90;;;7.10;;
3487;SDS011;38546;48.170;11.724;2023-08-20T13:24:12;8.23;;;7.43;;
3487;SDS011;38546;48.170;11.724;2023-08-20T13:27:01;8.90;;;7.10;;
3487;SDS011;38546;48.170;11.724;2023-08-20T13:29:52;7.57;;;5.97;;
3487;SDS011;38546;48.170;11.724;2023-08-20T13:32:41;7.93;;;6.30;;
3487;SDS011;38546;48.170;11.724;2023-08-20T13:35:31;7.13;;;6.43;;
3487;SDS011;38546;48.170;11.724;2023-08-20T13:38:20;8.50;;;6.73;;
3487;SDS011;38546;48.170;11.724;2023-08-20T13:41:10;7.33;;;6.60;;
3487;SDS011;38546;48.170;11.724;2023-08-20T13:44:00;8.33;;;7.53;;
3487;SDS011;38546;48.170;11.724;2023-08-20T13:46:49;7.53;;;6.77;;
3487;SDS011;38546;48.170;11.724;2023-08-20T13:49:38;9.57;;;6.40;;
3487;SDS011;38546;48.170;11.724;2023-08-20T13:52:27;6.73;;;6.13;;
3487;SDS011;38546;48.170;11.724;2023-08-20T13:55:16;7.53;;;6.80;;
3487;SDS011;38546;48.170;11.724;2023-08-20T13:58:06;7.60;;;6.80;;
3487;SDS011;38546;48.170;11.724;2023-08-20T14:00:56;8.67;;;7.77;;
3487;SDS011;38546;48.170;11.724;2023-08-20T14:03:45;8.27;;;7.57;;
3487;SDS011;38546;48.170;11.724;2023-08-20T14:06:35;7.03;;;6.30;;
3487;SDS011;38546;48.170;11.724;2023-08-20T14:09:28;8.43;;;7.37;;
3487;SDS011;38546;48.170;11.724;2023-08-20T14:12:17;7.67;;;6.87;;
3487;SDS011;38546;48.170;11.724;2023-08-20T14:15:09;7.53;;;6.73;;
3487;SDS011;38546;48.170;11.724;2023-08-20T14:17:59;7.57;;;6.87;;
3487;SDS011;38546;48.170;11.724;2023-08-20T14:20:48;7.03;;;6.33;;
3487;SDS011;38546;48.170;11.724;2023-08-20T14:23:37;7.70;;;7.00;;
3487;SDS011;38546;48.170;11.724;2023-08-20T14:26:26;8.33;;;6.67;;
3487;SDS011;38546;48.170;11.724;2023-08-20T14:29:16;8.17;;;7.37;;
3487;SDS011;38546;48.170;11.724;2023-08-20T14:32:05;10.20;;;6.30;;
3487;SDS011;38546;48.170;11.724;2023-08-20T14:34:54;7.60;;;6.77;;
3487;SDS011;38546;48.170;11.724;2023-08-20T14:37:43;10.00;;;7.00;;
3487;SDS011;38546;48.170;11.724;2023-08-20T14:40:36;7.23;;;6.53;;
3487;SDS011;38546;48.170;11.724;2023-08-20T14:43:28;7.90;;;7.10;;
3487;SDS011;38546;48.170;11.724;2023-08-20T14:46:18;7.10;;;6.40;;
3487;SDS011;38546;48.170;11.724;2023-08-20T14:49:08;7.40;;;6.50;;
3487;SDS011;38546;48.170;11.724;2023-08-20T14:51:57;6.43;;;5.83;;
3487;SDS011;38546;48.170;11.724;2023-08-20T14:54:48;7.47;;;6.33;;
3487;SDS011;38546;48.170;11.724;2023-08-20T14:57:38;7.50;;;6.80;;
3487;SDS011;38546;48.170;11.724;2023-08-20T15:00:27;7.67;;;6.97;;
3487;SDS011;38546;48.170;11.724;2023-08-20T15:03:18;8.70;;;7.20;;
3487;SDS011;38546;48.170;11.724;2023-08-20T15:06:07;8.00;;;6.50;;
3487;SDS011;38546;48.170;11.724;2023-08-20T15:08:56;8.10;;;7.30;;
3487;SDS011;38546;48.170;11.724;2023-08-20T15:11:45;7.60;;;6.90;;
3487;SDS011;38546;48.170;11.724;2023-08-20T15:14:35;7.27;;;6.63;;
3487;SDS011;38546;48.170;11.724;2023-08-20T15:17:25;10.80;;;7.83;;
3487;SDS011;38546;48.170;11.724;2023-08-20T15:20:14;7.27;;;6.50;;
3487;SDS011;38546;48.170;11.724;2023-08-20T15:23:03;7.73;;;6.93;;
3487;SDS011;38546;48.170;11.724;2023-08-20T15:25:53;6.90;;;6.30;;
3487;SDS011;38546;48.170;11.724;2023-08-20T15:28:44;7.50;;;6.90;;
3487;SDS011;38546;48.170;11.724;2023-08-20T15:31:33;7.20;;;6.40;;
3487;SDS011;38546;48.170;11.724;2023-08-20T15:34:22;6.57;;;6.00;;
3487;SDS011;38546;48.170;11.724;2023-08-20T15:37:12;7.80;;;6.60;;
3487;SDS011;38546;48.170;11.724;2023-08-20T15:40:01;8.00;;;7.30;;
3487;SDS011;38546;48.170;11.724;2023-08-20T15:42:54;7.13;;;6.43;;
3487;SDS011;38546;48.170;11.724;2023-08-20T15:45:43;10.30;;;7.53;;
3487;SDS011;38546;48.170;11.724;2023-08-20T15:48:33;7.93;;;7.13;;
3487;SDS011;38546;48.170;11.724;2023-08-20T15:51:22;8.80;;;7.20;;
3487;SDS011;38546;48.170;11.724;2023-08-20T15:54:11;6.67;;;6.07;;
3487;SDS011;38546;48.170;11.724;2023-08-20T15:57:01;7.03;;;6.33;;
3487;SDS011;38546;48.170;11.724;2023-08-20T15:59:51;7.27;;;6.57;;
3487;SDS011;38546;48.170;11.724;2023-08-20T16:02:43;7.17;;;6.50;;
3487;SDS011;38546;48.170;11.724;2023-08-20T16:05:34;8.33;;;7.13;;
3487;SDS011;38546;48.170;11.724;2023-08-20T16:08:23;6.97;;;6.17;;
3487;SDS011;38546;48.170;11.724;2023-08-20T16:11:13;8.43;;;6.40;;
3487;SDS011;38546;48.170;11.724;2023-08-20T16:14:03;7.47;;;6.87;;
3487;SDS011;38546;48.170;11.724;2023-08-20T16:16:52;7.50;;;6.90;;
3487;SDS011;38546;48.170;11.724;2023-08-20T16:19:42;7.60;;;6.90;;
3487;SDS011;38546;48.170;11.724;2023-08-20T16:22:32;7.67;;;6.97;;
3487;SDS011;38546;48.170;11.724;2023-08-20T16:25:21;7.20;;;6.60;;
3487;SDS011;38546;48.170;11.724;2023-08-20T16:28:10;7.23;;;6.50;;
3487;SDS011;38546;48.170;11.724;2023-08-20T16:30:59;7.67;;;6.97;;
3487;SDS011;38546;48.170;11.724;2023-08-20T16:33:48;8.23;;;7.30;;
3487;SDS011;38546;48.170;11.724;2023-08-20T16:36:37;7.00;;;6.40;;
3487;SDS011;38546;48.170;11.724;2023-08-20T16:39:27;8.13;;;6.40;;
3487;SDS011;38546;48.170;11.724;2023-08-20T16:42:16;7.00;;;6.40;;
3487;SDS011;38546;48.170;11.724;2023-08-20T16:45:05;7.00;;;6.30;;
3487;SDS011;38546;48.170;11.724;2023-08-20T16:47:57;8.10;;;7.07;;
3487;SDS011;38546;48.170;11.724;2023-08-20T16:50:47;8.00;;;7.17;;
3487;SDS011;38546;48.170;11.724;2023-08-20T16:53:37;9.10;;;7.10;;
3487;SDS011;38546;48.170;11.724;2023-08-20T16:56:25;13.00;;;6.80;;
3487;SDS011;38546;48.170;11.724;2023-08-20T16:59:14;7.00;;;6.40;;
3487;SDS011;38546;48.170;11.724;2023-08-20T17:02:05;8.70;;;7.43;;
3487;SDS011;38546;48.170;11.724;2023-08-20T17:04:54;8.87;;;6.70;;
3487;SDS011;38546;48.170;11.724;2023-08-20T17:07:43;7.13;;;6.43;;
3487;SDS011;38546;48.170;11.724;2023-08-20T17:10:32;6.83;;;6.23;;